Avery, Oklahoma
Current Conditions -  °F | °C
As of 1:15 PM on Thursday 23 Oct 2014 (Local Time) from KCUH Reporting Station
Clear Clear  
Wind Chill: 70°   Ceiling: Unl
Heat Index: 70°   Visibility: 10mi
Dew Point: 61°   Wind: 6mph
Humidity: 73%   Direction: 170°S
Pressure: 30.12"   Gusts: NA
Location:  35.9968°N, 96.7376°W
Report Text: KCUH 231815Z AUTO 17005KT 10SM CLR 21/16 A3012 RMK AO2
Loading
Personal Weather Stations






























Interactive Weather Map
Tropical Storm Tracking
New forecast layout! Learn more

10-Day Weather Forecast

Advertisements
Track Severe Weather on mobile